Menu Close Menu
Station Historical Data
Daily Summary for March 29, 2017 Units:  Metric    English   Both
« Previous Day
Next Day »
Daily Weekly Monthly Yearly Custom
  High: Low: Average:
Temperature: 28.2 °C 12.6 °C 20.3 °C
Dew Point: 14.5 °C 11.3 °C 12.8 °C
Humidity: 92% 40% 65%
Wind Speed: 3.2km/h 0km/h 0.2km/h
Wind Gust: 8km/h - -
Wind- - SSW
Pressure: 1018.2 hPa 1014.4 hPa -
Precipitation: 0 mm    
Historical Graphs
 
 
Tabular Data for March 29, 2017
Time Temperature Dew Point Pressure Wind Wind Speed Wind Gust Humidity Rainfall Rate (Hourly) solar Conditions
00:00 16.8 °C 12.5 °C 1016.1 hPa Calm     76% 0 mm 0.0 W/m2 RA
00:15 16.9 °C 12.6 °C 1016.1 hPa Calm     76% 0 mm 0.0 W/m2 SCT
00:30 16.9 °C 12.4 °C 1016.1 hPa Calm     75% 0 mm 0.0 W/m2 SCT
00:45 16.8 °C 12.4 °C 1016.1 hPa Calm   1.6 km/h 75% 0 mm 0.0 W/m2 SCT
01:00 17 °C 12.1 °C 1016.1 hPa Calm     73% 0 mm 0.0 W/m2 SCT
01:15 16.9 °C 12.2 °C 1016.1 hPa Calm     74% 0 mm 0.0 W/m2 SCT
01:30 16.5 °C 12.1 °C 1016.1 hPa Calm     75% 0 mm 0.0 W/m2 SCT
01:45 16.1 °C 12.1 °C 1016.5 hPa Calm     77% 0 mm 0.0 W/m2 SCT
02:00 15.8 °C 11.9 °C 1016.1 hPa Calm     78% 0 mm 0.0 W/m2 SCT
02:15 15.4 °C 12 °C 1016.1 hPa Calm   1.6 km/h 80% 0 mm 0.0 W/m2 SCT
02:30 15.1 °C 11.8 °C 1016.1 hPa Calm     81% 0 mm 0.0 W/m2 SCT
02:45 14.4 °C 11.6 °C 1016.1 hPa Calm     83% 0 mm 0.0 W/m2 SCT
03:00 14.4 °C 11.6 °C 1015.8 hPa Calm     83% 0 mm 0.0 W/m2 SCT
03:15 14.4 °C 11.6 °C 1015.8 hPa Calm     83% 0 mm 0.0 W/m2 SCT
03:30 14.4 °C 11.6 °C 1015.8 hPa Calm     83% 0 mm 0.0 W/m2 SCT
03:45 14.4 °C 11.6 °C 1015.8 hPa Calm     83% 0 mm 0.0 W/m2 SCT
04:00 14.4 °C 11.6 °C 1015.8 hPa Calm     83% 0 mm 0.0 W/m2 SCT
04:15 14.4 °C 11.6 °C 1015.5 hPa Calm     83% 0 mm 0.0 W/m2 SCT
04:30 14.4 °C 11.6 °C 1015.8 hPa Calm     83% 0 mm 0.0 W/m2 SCT
04:45 14.4 °C 11.6 °C 1015.8 hPa Calm     83% 0 mm 0.0 W/m2 SCT
05:00 14.4 °C 11.6 °C 1015.8 hPa Calm     83% 0 mm 0.0 W/m2 SCT
05:15 14.4 °C 11.6 °C 1015.8 hPa Calm     83% 0 mm 0.0 W/m2 SCT
05:30 14.4 °C 11.6 °C 1015.8 hPa Calm     83% 0 mm 0.0 W/m2 SCT
05:45 14.4 °C 11.6 °C 1015.8 hPa Calm     83% 0 mm 0.0 W/m2 SCT
06:00 14.4 °C 11.6 °C 1015.8 hPa Calm     83% 0 mm 0.0 W/m2 SCT
06:15 14.4 °C 11.6 °C 1015.8 hPa Calm     83% 0 mm 0.0 W/m2 SCT
06:30 14.4 °C 11.6 °C 1016.1 hPa Calm     83% 0 mm 0.0 W/m2 SCT
06:45 14.4 °C 11.6 °C 1016.1 hPa Calm     83% 0 mm 0.0 W/m2 SCT
07:00 14.4 °C 11.6 °C 1016.5 hPa Calm     83% 0 mm 0.0 W/m2 SCT
07:15 14.4 °C 11.6 °C 1016.5 hPa Calm     83% 0 mm 0.0 W/m2 SCT
07:30 14.4 °C 11.6 °C 1016.5 hPa Calm     83% 0 mm 0.0 W/m2 SCT
07:45 14.4 °C 11.6 °C 1016.8 hPa Calm     83% 0 mm 0.0 W/m2 SCT
08:00 14.4 °C 11.6 °C 1016.8 hPa Calm     83% 0 mm 0.0 W/m2 SCT
08:15 12.6 °C 11.3 °C 1017.2 hPa Calm     92% 0 mm 0.0 W/m2 SCT
08:30 13.2 °C 11.9 °C 1017.5 hPa Calm     92% 0 mm 0.0 W/m2 SCT
08:45 13.8 °C 12.4 °C 1017.5 hPa Calm     91% 0 mm 0.0 W/m2 SCT
09:00 14.4 °C 12.7 °C 1017.8 hPa Calm     89% 0 mm 0.0 W/m2 SCT
09:15 15.4 °C 12.6 °C 1017.8 hPa Calm     83% 0 mm 0.0 W/m2 SCT
09:30 16.1 °C 12.7 °C 1017.8 hPa Calm     80% 0 mm 0.0 W/m2 SCT
09:45 16.6 °C 12.7 °C 1017.8 hPa Calm     78% 0 mm 0.0 W/m2 SCT
10:00 17.5 °C 12.8 °C 1017.8 hPa Calm   3.2 km/h 74% 0 mm 0.0 W/m2 SCT
10:15 18.5 °C 13.2 °C 1017.8 hPa Calm   3.2 km/h 71% 0 mm 0.0 W/m2 SCT
10:30 19.7 °C 13.2 °C 1018.2 hPa Calm   3.2 km/h 66% 0 mm 0.0 W/m2 SCT
10:45 20.9 °C 13.9 °C 1018.2 hPa Calm   3.2 km/h 64% 0 mm 0.0 W/m2 SCT
11:00 22.3 °C 13.4 °C 1018.2 hPa Calm   4.8 km/h 57% 0 mm 0.0 W/m2 SCT
11:15 23.1 °C 13.3 °C 1018.2 hPa Calm   4.8 km/h 54% 0 mm 0.0 W/m2 SCT
11:30 23.4 °C 13.3 °C 1018.2 hPa Calm   4.8 km/h 53% 0 mm 0.0 W/m2 SCT
11:45 24.1 °C 12.7 °C 1018.2 hPa West 1.6 km/h 8 km/h 49% 0 mm 0.0 W/m2 SCT
12:00 24.8 °C 13.7 °C 1017.8 hPa Calm   3.2 km/h 50% 0 mm 0.0 W/m2 SCT
12:15 26 °C 13.2 °C 1017.8 hPa Calm   3.2 km/h 45% 0 mm 0.0 W/m2 SCT
12:30 26 °C 13.5 °C 1017.8 hPa WNW 1.6 km/h 8 km/h 46% 0 mm 0.0 W/m2 SCT
12:45 26.2 °C 13.6 °C 1017.5 hPa West 1.6 km/h 4.8 km/h 46% 0 mm 0.0 W/m2 SCT
13:00 26.9 °C 13.9 °C 1017.5 hPa Calm   3.2 km/h 45% 0 mm 0.0 W/m2 SCT
13:15 27.2 °C 13.5 °C 1017.2 hPa NW 1.6 km/h 4.8 km/h 43% 0 mm 0.0 W/m2 SCT
13:30 27.7 °C 14 °C 1016.8 hPa SSW 1.6 km/h 4.8 km/h 43% 0 mm 0.0 W/m2 SCT
13:45 27.7 °C 14.3 °C 1016.8 hPa SSE 1.6 km/h 4.8 km/h 44% 0 mm 0.0 W/m2 SCT
14:00 28.2 °C 13.3 °C 1016.8 hPa WSW 1.6 km/h 4.8 km/h 40% 0 mm 0.0 W/m2 SCT
14:15 27.5 °C 13.1 °C 1016.8 hPa ESE 1.6 km/h 8 km/h 41% 0 mm 0.0 W/m2 SCT
14:30 27.6 °C 13.5 °C 1016.8 hPa Calm   8 km/h 42% 0 mm 0.0 W/m2 SCT
14:45 27.6 °C 14.2 °C 1016.8 hPa Calm   8 km/h 44% 0 mm 0.0 W/m2 SCT
15:00 26.8 °C 13.5 °C 1016.8 hPa NE 1.6 km/h 8 km/h 44% 0 mm 0.0 W/m2 SCT
15:15 26.3 °C 13.1 °C 1016.8 hPa South 3.2 km/h 8 km/h 44% 0 mm 0.0 W/m2 SCT
15:30 26 °C 12.8 °C 1016.5 hPa Calm   4.8 km/h 44% 0 mm 0.0 W/m2 SCT
15:45 26.5 °C 12.9 °C 1016.1 hPa Calm   8 km/h 43% 0 mm 0.0 W/m2 SCT
16:00 26.6 °C 13.7 °C 1016.1 hPa Calm   1.6 km/h 45% 0 mm 0.0 W/m2 SCT
16:15 26.9 °C 12.9 °C 1015.8 hPa Calm   4.8 km/h 42% 0 mm 0.0 W/m2 SCT
16:30 26.9 °C 12.6 °C 1015.8 hPa Calm   4.8 km/h 41% 0 mm 0.0 W/m2 SCT
16:45 26.8 °C 12.8 °C 1015.8 hPa Calm   3.2 km/h 42% 0 mm 0.0 W/m2 SCT
17:00 26.7 °C 13.4 °C 1015.5 hPa Calm   3.2 km/h 44% 0 mm 0.0 W/m2 SCT
17:15 26.6 °C 13 °C 1015.1 hPa South 1.6 km/h 3.2 km/h 43% 0 mm 0.0 W/m2 SCT
17:30 26.4 °C 12.8 °C 1015.1 hPa Calm   1.6 km/h 43% 0 mm 0.0 W/m2 SCT
17:45 26.4 °C 12.8 °C 1015.1 hPa Calm   1.6 km/h 43% 0 mm 0.0 W/m2 SCT
18:00 26.4 °C 13.2 °C 1014.8 hPa Calm   1.6 km/h 44% 0 mm 0.0 W/m2 SCT
18:15 26.4 °C 13.5 °C 1014.8 hPa Calm   1.6 km/h 45% 0 mm 0.0 W/m2 SCT
18:45 26.4 °C 12.8 °C 1014.8 hPa Calm     43% 0 mm 0.0 W/m2 SCT
19:00 26 °C 13.5 °C 1014.8 hPa Calm     46% 0 mm 0.0 W/m2 SCT
19:15 25.4 °C 13.9 °C 1014.8 hPa Calm     49% 0 mm 0.0 W/m2 SCT
19:30 24.9 °C 14.1 °C 1014.4 hPa Calm     51% 0 mm 0.0 W/m2 SCT
19:45 24.3 °C 13.8 °C 1014.8 hPa Calm     52% 0 mm 0.0 W/m2 SCT
20:00 23.7 °C 13.5 °C 1014.4 hPa Calm     53% 0 mm 0.0 W/m2 SCT
20:15 23.1 °C 13.8 °C 1014.8 hPa Calm     56% 0 mm 0.0 W/m2 SCT
20:30 22.4 °C 13.4 °C 1014.4 hPa Calm     57% 0 mm 0.0 W/m2 SCT
20:45 21.9 °C 13.5 °C 1014.8 hPa Calm     59% 0 mm 0.0 W/m2 SCT
21:00 21.6 °C 13.5 °C 1014.8 hPa Calm     60% 0 mm 0.0 W/m2 SCT
21:15 21 °C 13.7 °C 1014.8 hPa Calm     63% 0 mm 0.0 W/m2 SCT
21:30 21 °C 13.4 °C 1014.8 hPa Calm     62% 0 mm 0.0 W/m2 SCT
21:45 20.9 °C 13.6 °C 1015.1 hPa Calm     63% 0 mm 0.0 W/m2 SCT
22:00 20.6 °C 13.6 °C 1015.1 hPa Calm     64% 0 mm 0.0 W/m2 SCT
22:15 20.7 °C 13.8 °C 1015.5 hPa Calm     65% 0 mm 0.0 W/m2 SCT
22:30 20.6 °C 13.6 °C 1015.5 hPa Calm     64% 0 mm 0.0 W/m2 SCT
22:45 20.9 °C 13.3 °C 1015.5 hPa Calm     62% 0 mm 0.0 W/m2 SCT
23:00 21 °C 13.7 °C 1015.5 hPa Calm     63% 0 mm 0.0 W/m2 SCT
23:15 20.8 °C 14.4 °C 1015.5 hPa Calm     67% 0 mm 0.0 W/m2 SCT
23:30 20.4 °C 14.5 °C 1015.5 hPa Calm     69% 0 mm 0.0 W/m2 SCT
23:45 20.2 °C 14.1 °C 1015.1 hPa Calm     68% 0 mm 0.0 W/m2 SCT
Piedmont Bend
Compliments of Weather Underground - 4 mb